createdAt,value
2017-11-07T00:02:26.255Z,9.60
2017-11-07T00:04:54.724Z,8.37
2017-11-07T00:07:23.196Z,9.90
2017-11-07T00:09:51.683Z,9.03
2017-11-07T00:12:20.158Z,9.23
2017-11-07T00:14:48.451Z,9.03
2017-11-07T00:17:16.580Z,10.60
2017-11-07T00:19:45.859Z,10.60
2017-11-07T00:22:14.038Z,9.70
2017-11-07T00:24:42.616Z,10.23
2017-11-07T00:27:12.740Z,10.27
2017-11-07T00:29:41.215Z,9.50
2017-11-07T00:32:09.695Z,10.53
2017-11-07T00:34:38.192Z,10.03
2017-11-07T00:37:06.671Z,10.17
2017-11-07T00:39:36.031Z,9.93
2017-11-07T00:42:04.529Z,10.20
2017-11-07T00:44:33.247Z,10.00
2017-11-07T00:47:01.563Z,10.10
2017-11-07T00:49:30.059Z,10.60
2017-11-07T00:51:58.522Z,10.70
2017-11-07T00:54:27.004Z,10.70
2017-11-07T00:56:55.484Z,10.43
2017-11-07T00:59:23.968Z,10.47
2017-11-07T01:01:52.450Z,10.60
2017-11-07T01:04:20.946Z,10.17
2017-11-07T01:06:49.417Z,9.47
2017-11-07T01:09:18.279Z,9.70
2017-11-07T01:11:46.764Z,10.40
2017-11-07T01:14:15.327Z,10.80
2017-11-07T01:16:43.831Z,10.20
2017-11-07T01:19:12.317Z,10.03
2017-11-07T01:21:40.785Z,10.13
2017-11-07T01:24:09.265Z,9.73
2017-11-07T01:26:38.215Z,10.27
2017-11-07T01:29:06.828Z,10.47
2017-11-07T01:31:35.301Z,11.17
2017-11-07T01:34:03.824Z,9.23
2017-11-07T01:36:32.302Z,10.17
2017-11-07T01:39:00.784Z,10.50
2017-11-07T01:41:29.077Z,10.20
2017-11-07T01:43:58.295Z,10.50
2017-11-07T01:46:26.774Z,10.70
2017-11-07T01:48:55.259Z,12.17
2017-11-07T01:51:23.736Z,10.60
2017-11-07T01:53:52.991Z,10.97
2017-11-07T01:56:21.839Z,9.83
2017-11-07T01:58:50.129Z,10.70
2017-11-07T02:01:18.416Z,10.93
2017-11-07T02:03:46.891Z,9.70
2017-11-07T02:06:15.356Z,10.97
2017-11-07T02:08:43.852Z,10.20
2017-11-07T02:11:12.314Z,10.87
2017-11-07T02:13:40.784Z,12.03
2017-11-07T02:16:10.047Z,11.17
2017-11-07T02:18:38.503Z,11.37
2017-11-07T02:21:06.987Z,12.07
2017-11-07T02:23:35.452Z,11.43
2017-11-07T02:26:03.936Z,11.90
2017-11-07T02:28:32.058Z,12.27
2017-11-07T02:30:59.856Z,11.40
2017-11-07T02:33:28.732Z,11.57
2017-11-07T02:35:58.096Z,11.00
2017-11-07T02:38:26.580Z,12.13
2017-11-07T02:40:54.415Z,13.30
2017-11-07T02:43:22.876Z,11.60
2017-11-07T02:45:52.117Z,13.40
2017-11-07T02:48:20.636Z,12.23
2017-11-07T02:50:49.107Z,12.80
2017-11-07T02:53:17.963Z,12.10
2017-11-07T02:55:46.107Z,11.63
2017-11-07T02:58:15.485Z,12.87
2017-11-07T03:00:44.096Z,12.60
2017-11-07T03:03:13.348Z,12.73
2017-11-07T03:05:42.117Z,12.45
2017-11-07T03:08:10.592Z,12.80
2017-11-07T03:10:39.153Z,13.40
2017-11-07T03:13:08.604Z,13.20
2017-11-07T03:15:37.092Z,12.77
2017-11-07T03:18:05.559Z,13.50
2017-11-07T03:20:34.046Z,13.50
2017-11-07T03:23:03.118Z,13.60
2017-11-07T03:25:32.455Z,13.67
2017-11-07T03:28:00.921Z,13.00
2017-11-07T03:30:29.418Z,13.43
2017-11-07T03:32:58.144Z,13.53
2017-11-07T03:35:26.632Z,12.97
2017-11-07T03:37:55.146Z,13.67
2017-11-07T03:40:23.627Z,13.17
2017-11-07T03:42:52.085Z,13.23
2017-11-07T03:45:21.331Z,13.40
2017-11-07T03:47:49.815Z,13.60
2017-11-07T03:50:18.301Z,14.60
2017-11-07T03:52:46.755Z,13.80
2017-11-07T03:55:15.996Z,13.50
2017-11-07T03:57:44.546Z,14.07
2017-11-07T04:00:13.027Z,13.13
2017-11-07T04:02:41.528Z,13.87
2017-11-07T04:05:09.743Z,15.10
2017-11-07T04:07:38.215Z,13.90
2017-11-07T04:10:06.719Z,13.67
2017-11-07T04:12:35.198Z,14.37
2017-11-07T04:15:03.952Z,13.00
2017-11-07T04:17:32.430Z,16.37
2017-11-07T04:20:00.899Z,13.57
2017-11-07T04:22:29.386Z,14.83
2017-11-07T04:24:57.852Z,14.80
2017-11-07T04:27:26.475Z,13.60
2017-11-07T04:29:54.940Z,13.80
2017-11-07T04:32:23.456Z,13.10
2017-11-07T04:34:51.935Z,15.37
2017-11-07T04:37:20.406Z,14.77
2017-11-07T04:39:48.893Z,13.63
2017-11-07T04:42:17.416Z,14.40
2017-11-07T04:44:46.681Z,14.63
2017-11-07T04:47:15.208Z,13.77
2017-11-07T04:49:44.475Z,13.97
2017-11-07T04:52:12.956Z,13.20
2017-11-07T04:54:41.437Z,14.50
2017-11-07T04:57:11.416Z,13.97
2017-11-07T04:59:39.919Z,13.20
2017-11-07T05:02:08.396Z,13.57
2017-11-07T05:04:36.859Z,15.03
2017-11-07T05:07:05.355Z,14.37
2017-11-07T05:09:33.631Z,13.77
2017-11-07T05:12:02.160Z,14.50
2017-11-07T05:14:30.632Z,14.27
2017-11-07T05:16:59.499Z,15.43
2017-11-07T05:19:27.992Z,15.60
2017-11-07T05:21:56.475Z,17.33
2017-11-07T05:24:24.943Z,15.00
2017-11-07T05:26:53.400Z,15.27
2017-11-07T05:29:22.852Z,15.57
2017-11-07T05:31:50.968Z,15.30
2017-11-07T05:34:19.848Z,15.20
2017-11-07T05:36:49.079Z,16.40
2017-11-07T05:39:17.558Z,14.43
2017-11-07T05:41:46.003Z,15.53
2017-11-07T05:44:15.296Z,17.07
2017-11-07T05:46:43.065Z,15.27
2017-11-07T05:49:11.588Z,15.43
2017-11-07T05:51:39.383Z,17.00
2017-11-07T05:54:08.023Z,17.10
2017-11-07T05:56:36.488Z,17.00
2017-11-07T05:59:05.767Z,16.80
2017-11-07T06:01:34.275Z,16.37
2017-11-07T06:04:03.579Z,17.60
2017-11-07T06:06:32.926Z,18.33
2017-11-07T06:09:01.391Z,17.97
2017-11-07T06:11:29.895Z,19.00
2017-11-07T06:13:58.352Z,18.87
2017-11-07T06:16:27.371Z,19.60
2017-11-07T06:18:55.838Z,17.80
2017-11-07T06:21:24.331Z,18.23
2017-11-07T06:23:52.609Z,18.13
2017-11-07T06:26:21.100Z,17.33
2017-11-07T06:28:50.450Z,18.23
2017-11-07T06:31:19.687Z,18.10
2017-11-07T06:33:48.169Z,18.77
2017-11-07T06:36:16.717Z,18.93
2017-11-07T06:38:45.959Z,19.57
2017-11-07T06:41:14.442Z,19.67
2017-11-07T06:43:43.050Z,19.53
2017-11-07T06:46:11.564Z,18.43
2017-11-07T06:48:40.815Z,19.63
2017-11-07T06:51:10.420Z,20.00
2017-11-07T06:53:39.658Z,19.80
2017-11-07T06:56:08.111Z,19.50
2017-11-07T06:58:36.977Z,21.47
2017-11-07T07:01:05.455Z,21.23
2017-11-07T07:03:34.320Z,21.10
2017-11-07T07:06:02.798Z,22.83
2017-11-07T07:08:31.247Z,22.00
2017-11-07T07:10:59.380Z,23.97
2017-11-07T07:13:27.860Z,22.20
2017-11-07T07:15:57.097Z,22.57
2017-11-07T07:18:25.673Z,21.83
2017-11-07T07:20:54.179Z,23.00
2017-11-07T07:23:22.654Z,23.43
2017-11-07T07:25:51.139Z,25.30
2017-11-07T07:28:19.603Z,23.43
2017-11-07T07:30:48.298Z,25.60
2017-11-07T07:33:16.763Z,26.23
2017-11-07T07:35:45.243Z,26.80
2017-11-07T07:38:13.708Z,27.80
2017-11-07T07:40:43.032Z,25.33
2017-11-07T07:43:11.510Z,26.27
2017-11-07T07:45:39.976Z,27.50
2017-11-07T07:48:09.213Z,28.10
2017-11-07T07:50:37.756Z,28.07
2017-11-07T07:53:07.006Z,26.70
2017-11-07T07:55:35.474Z,27.70
2017-11-07T07:58:03.956Z,27.30
2017-11-07T08:00:32.415Z,27.77
2017-11-07T08:03:00.535Z,28.63
2017-11-07T08:05:28.312Z,28.27
2017-11-07T08:07:56.529Z,27.63
2017-11-07T08:10:25.016Z,28.57
2017-11-07T08:12:53.507Z,27.03
2017-11-07T08:15:21.889Z,27.87
2017-11-07T08:17:50.347Z,30.20
2017-11-07T08:20:19.565Z,29.83
2017-11-07T08:22:48.055Z,29.27
2017-11-07T08:25:16.511Z,31.10
2017-11-07T08:27:45.759Z,31.47
2017-11-07T08:30:14.279Z,30.77
2017-11-07T08:32:42.749Z,34.13
2017-11-07T08:35:11.204Z,30.90
2017-11-07T08:37:39.685Z,28.83
2017-11-07T08:40:08.165Z,30.00
2017-11-07T08:42:36.654Z,32.10
2017-11-07T08:45:05.527Z,29.03
2017-11-07T08:47:34.048Z,31.20
2017-11-07T08:50:02.611Z,31.13
2017-11-07T08:52:31.092Z,31.47
2017-11-07T08:54:59.605Z,31.47
2017-11-07T08:57:28.867Z,32.53
2017-11-07T08:59:57.342Z,34.23
2017-11-07T09:02:25.936Z,34.90
2017-11-07T09:04:54.444Z,34.30
2017-11-07T09:07:22.932Z,34.53
2017-11-07T09:09:51.207Z,34.17
2017-11-07T09:12:19.671Z,30.90
2017-11-07T09:14:48.202Z,34.33
2017-11-07T09:17:16.916Z,33.87
2017-11-07T09:19:45.392Z,33.90
2017-11-07T09:22:13.900Z,36.73
2017-11-07T09:24:42.369Z,35.07
2017-11-07T09:27:10.832Z,37.23
2017-11-07T09:29:39.318Z,36.00
2017-11-07T09:32:07.795Z,32.57
2017-11-07T09:34:37.179Z,33.20
2017-11-07T09:37:05.659Z,31.40
2017-11-07T09:39:34.139Z,33.37
2017-11-07T09:42:02.627Z,32.47
2017-11-07T09:44:31.875Z,32.33
2017-11-07T09:47:00.348Z,30.77
2017-11-07T09:49:28.820Z,30.30
2017-11-07T09:51:57.304Z,32.27
2017-11-07T09:54:25.773Z,30.03
2017-11-07T09:56:55.043Z,31.03
2017-11-07T09:59:23.596Z,28.90
2017-11-07T10:01:52.096Z,30.97
2017-11-07T10:04:20.562Z,29.30
2017-11-07T10:06:49.042Z,30.73
2017-11-07T10:09:17.514Z,31.30
2017-11-07T10:11:46.014Z,29.50
2017-11-07T10:14:14.541Z,32.17
2017-11-07T10:16:43.763Z,30.50
2017-11-07T10:19:12.248Z,30.20
2017-11-07T10:21:40.374Z,28.57
2017-11-07T10:24:09.088Z,26.70
2017-11-07T10:26:38.331Z,28.00
2017-11-07T10:29:06.797Z,27.37
2017-11-07T10:31:35.275Z,28.33
2017-11-07T10:34:03.398Z,27.47
2017-11-07T10:36:31.521Z,27.57
2017-11-07T10:39:00.003Z,26.40
2017-11-07T10:41:28.873Z,28.83
2017-11-07T10:43:57.779Z,26.43
2017-11-07T10:46:26.411Z,27.97
2017-11-07T10:48:54.916Z,29.17
2017-11-07T10:51:23.389Z,29.43
2017-11-07T10:53:51.515Z,27.47
2017-11-07T10:56:19.640Z,28.77
2017-11-07T10:58:48.111Z,26.97
2017-11-07T11:01:16.647Z,27.00
2017-11-07T11:03:45.344Z,27.80
2017-11-07T11:06:13.136Z,28.80
2017-11-07T11:08:41.791Z,26.33
2017-11-07T11:11:10.280Z,25.57
2017-11-07T11:13:38.764Z,27.90
2017-11-07T11:16:07.772Z,26.70
2017-11-07T11:18:36.231Z,26.57
2017-11-07T11:21:04.772Z,26.87
2017-11-07T11:23:33.248Z,28.37
2017-11-07T11:26:01.395Z,28.00
2017-11-07T11:28:29.931Z,27.50
2017-11-07T11:30:59.173Z,29.60
2017-11-07T11:33:27.664Z,27.73
2017-11-07T11:35:56.142Z,27.77
2017-11-07T11:38:24.667Z,28.20
2017-11-07T11:40:53.210Z,30.70
2017-11-07T11:43:21.693Z,30.93
2017-11-07T11:45:50.154Z,27.73
2017-11-07T11:48:18.643Z,27.27
2017-11-07T11:50:47.147Z,27.47
2017-11-07T11:53:15.640Z,27.10
2017-11-07T11:55:44.123Z,26.60
2017-11-07T11:58:12.603Z,27.60
2017-11-07T12:00:41.068Z,27.70
2017-11-07T12:03:09.550Z,26.93
2017-11-07T12:05:38.016Z,27.00
2017-11-07T12:08:06.490Z,26.37
2017-11-07T12:10:35.221Z,25.43
2017-11-07T12:13:03.695Z,25.70
2017-11-07T12:15:32.172Z,25.33
2017-11-07T12:18:00.655Z,26.10
2017-11-07T12:20:28.467Z,25.60
2017-11-07T12:22:56.972Z,25.20
2017-11-07T12:25:26.197Z,25.00
2017-11-07T12:27:54.660Z,24.00
2017-11-07T12:30:23.911Z,24.17
2017-11-07T12:32:52.059Z,23.47
2017-11-07T12:35:20.268Z,25.40
2017-11-07T12:37:49.769Z,23.73
2017-11-07T12:40:18.253Z,22.23
2017-11-07T12:42:46.748Z,22.77
2017-11-07T12:45:15.228Z,23.30
2017-11-07T12:47:43.696Z,22.73
2017-11-07T12:50:37.152Z,24.30
2017-11-07T12:53:05.629Z,24.30
2017-11-07T12:55:34.116Z,23.60
2017-11-07T12:58:02.601Z,24.00
2017-11-07T13:00:31.079Z,23.40
2017-11-07T13:02:59.563Z,23.00
2017-11-07T13:05:28.052Z,23.13
2017-11-07T13:07:56.528Z,22.57
2017-11-07T13:10:24.987Z,21.43
2017-11-07T13:12:53.487Z,23.50
2017-11-07T13:15:21.587Z,23.43
2017-11-07T13:17:50.081Z,22.37
2017-11-07T13:20:18.536Z,22.37
2017-11-07T13:22:47.022Z,22.83
2017-11-07T13:25:15.527Z,22.30
2017-11-07T13:27:44.026Z,25.70
2017-11-07T13:30:13.295Z,21.80
2017-11-07T13:32:41.787Z,24.47
2017-11-07T13:35:10.272Z,23.30
2017-11-07T13:37:38.411Z,21.93
2017-11-07T13:40:06.886Z,22.57
2017-11-07T13:42:35.431Z,23.63
2017-11-07T13:45:04.363Z,22.63
2017-11-07T13:47:33.064Z,22.13
2017-11-07T13:50:01.538Z,23.00
2017-11-07T13:52:29.999Z,21.37
2017-11-07T13:54:58.488Z,22.80
2017-11-07T13:57:27.007Z,24.87
2017-11-07T13:59:55.508Z,21.90
2017-11-07T14:02:23.991Z,23.27
2017-11-07T14:04:52.148Z,23.40
2017-11-07T14:07:21.623Z,22.30
2017-11-07T14:09:50.110Z,22.43
2017-11-07T14:12:18.591Z,23.57
2017-11-07T14:14:47.068Z,21.93
2017-11-07T14:17:15.654Z,24.50
2017-11-07T14:19:44.678Z,22.97
2017-11-07T14:22:13.150Z,23.30
2017-11-07T14:24:41.628Z,23.23
2017-11-07T14:27:10.097Z,24.30
2017-11-07T14:29:38.759Z,22.70
2017-11-07T14:32:08.008Z,22.20
2017-11-07T14:34:36.576Z,23.40
2017-11-07T14:37:05.066Z,24.23
2017-11-07T14:39:34.681Z,23.33
2017-11-07T14:42:03.221Z,23.23
2017-11-07T14:44:32.444Z,24.60
2017-11-07T14:47:01.768Z,23.57
2017-11-07T14:49:30.246Z,22.07
2017-11-07T14:51:58.724Z,22.30
2017-11-07T14:54:27.415Z,22.40
2017-11-07T14:56:55.876Z,24.50
2017-11-07T14:59:24.359Z,23.80
2017-11-07T15:01:52.849Z,23.50
2017-11-07T15:04:21.485Z,24.33
2017-11-07T15:06:50.000Z,23.03
2017-11-07T15:09:19.259Z,23.97
2017-11-07T15:11:47.777Z,23.60
2017-11-07T15:14:17.033Z,24.00
2017-11-07T15:16:45.782Z,22.97
2017-11-07T15:19:14.264Z,23.27
2017-11-07T15:21:42.743Z,25.57
2017-11-07T15:24:11.250Z,24.80
2017-11-07T15:26:39.836Z,25.00
2017-11-07T15:29:08.294Z,25.10
2017-11-07T15:31:36.893Z,24.80
2017-11-07T15:34:05.364Z,25.03
2017-11-07T15:36:33.854Z,25.73
2017-11-07T15:39:02.327Z,25.23
2017-11-07T15:41:30.810Z,25.03
2017-11-07T15:43:59.307Z,24.33
2017-11-07T15:46:27.781Z,24.90
2017-11-07T15:48:56.273Z,25.80
2017-11-07T15:51:24.734Z,25.77
2017-11-07T15:53:53.971Z,27.60
2017-11-07T15:56:22.506Z,28.27
2017-11-07T15:58:51.855Z,25.73
2017-11-07T16:01:20.339Z,26.60
2017-11-07T16:03:48.838Z,27.63
2017-11-07T16:06:17.323Z,26.57
2017-11-07T16:08:45.808Z,27.03
2017-11-07T16:11:14.307Z,27.57
2017-11-07T16:13:42.772Z,27.20
2017-11-07T16:16:11.267Z,27.73
2017-11-07T16:18:39.809Z,29.90
2017-11-07T16:21:08.335Z,27.20
2017-11-07T16:23:37.050Z,28.40
2017-11-07T16:26:05.588Z,27.87
2017-11-07T16:28:34.136Z,30.10
2017-11-07T16:31:02.615Z,29.07
2017-11-07T16:33:31.104Z,29.57
2017-11-07T16:35:59.697Z,28.57
2017-11-07T16:38:28.186Z,32.30
2017-11-07T16:40:56.768Z,28.43
2017-11-07T16:43:25.346Z,30.70
2017-11-07T16:45:53.827Z,31.30
2017-11-07T16:48:22.329Z,30.40
2017-11-07T16:50:50.832Z,29.20
2017-11-07T16:53:19.319Z,32.07
2017-11-07T16:55:47.779Z,33.03
2017-11-07T16:58:16.300Z,31.00
2017-11-07T17:00:45.132Z,31.40
2017-11-07T17:03:13.609Z,32.87
2017-11-07T17:05:42.103Z,32.50
2017-11-07T17:08:10.583Z,33.77
2017-11-07T17:10:39.084Z,32.90
2017-11-07T17:13:07.553Z,33.57
2017-11-07T17:15:36.065Z,34.80
2017-11-07T17:18:04.543Z,33.33
2017-11-07T17:20:33.022Z,35.00
2017-11-07T17:23:01.500Z,35.70
2017-11-07T17:25:30.116Z,35.97
2017-11-07T17:27:58.603Z,36.00
2017-11-07T17:30:27.866Z,37.37
2017-11-07T17:32:56.383Z,37.10
2017-11-07T17:35:24.864Z,37.67
2017-11-07T17:37:54.917Z,38.77
2017-11-07T17:40:23.402Z,38.77
2017-11-07T17:42:51.907Z,38.00
2017-11-07T17:45:20.376Z,41.93
2017-11-07T17:47:48.888Z,35.47
2017-11-07T17:50:17.363Z,39.07
2017-11-07T17:52:45.863Z,37.73
2017-11-07T17:55:14.340Z,38.90
2017-11-07T17:57:42.828Z,38.10
2017-11-07T18:00:11.295Z,38.77
2017-11-07T18:02:39.799Z,38.27
2017-11-07T18:05:08.263Z,39.10
2017-11-07T18:07:36.748Z,37.50
2017-11-07T18:10:05.216Z,37.93
2017-11-07T18:12:33.714Z,39.00
2017-11-07T18:15:02.204Z,37.03
2017-11-07T18:17:30.750Z,36.60
2017-11-07T18:19:59.267Z,38.47
2017-11-07T18:22:27.749Z,36.20
2017-11-07T18:24:56.248Z,37.83
2017-11-07T18:27:25.563Z,37.73
2017-11-07T18:29:54.812Z,37.03
2017-11-07T18:32:23.282Z,36.70
2017-11-07T18:34:51.779Z,35.67
2017-11-07T18:37:20.259Z,36.60
2017-11-07T18:39:48.774Z,35.33
2017-11-07T18:42:17.284Z,38.40
2017-11-07T18:44:46.523Z,36.40
2017-11-07T18:47:15.014Z,38.37
2017-11-07T18:49:43.536Z,35.30
2017-11-07T18:52:12.029Z,37.30
2017-11-07T18:54:41.271Z,35.30
2017-11-07T18:57:09.772Z,35.70
2017-11-07T18:59:38.288Z,38.27
2017-11-07T19:02:06.565Z,35.20
2017-11-07T19:04:35.068Z,36.30
2017-11-07T19:07:04.301Z,37.47
2017-11-07T19:09:32.786Z,38.13
2017-11-07T19:12:01.276Z,35.67
2017-11-07T19:14:29.796Z,35.33
2017-11-07T19:16:58.284Z,32.30
2017-11-07T19:19:27.551Z,32.57
2017-11-07T19:21:56.239Z,31.10
2017-11-07T19:24:24.725Z,31.50
2017-11-07T19:26:53.245Z,31.93
2017-11-07T19:29:22.504Z,31.40
2017-11-07T19:31:50.975Z,30.97
2017-11-07T19:34:19.558Z,31.80
2017-11-07T19:36:48.032Z,33.47
2017-11-07T19:39:16.650Z,32.33
2017-11-07T19:41:45.113Z,33.10
2017-11-07T19:44:13.760Z,30.53
2017-11-07T19:46:43.021Z,33.07
2017-11-07T19:49:12.283Z,31.87
2017-11-07T19:51:40.791Z,31.00
2017-11-07T19:54:09.271Z,31.43
2017-11-07T19:56:37.780Z,30.30
2017-11-07T19:59:06.277Z,29.40
2017-11-07T20:01:35.536Z,30.77
2017-11-07T20:04:04.120Z,32.77
2017-11-07T20:06:32.460Z,30.10
2017-11-07T20:09:01.652Z,31.37
2017-11-07T20:11:30.136Z,31.30
2017-11-07T20:13:59.416Z,31.67
2017-11-07T20:16:27.919Z,30.97
2017-11-07T20:18:56.444Z,31.70
2017-11-07T20:21:24.997Z,32.47
2017-11-07T20:23:53.598Z,33.93
2017-11-07T20:26:22.048Z,34.30
2017-11-07T20:28:50.953Z,35.27
2017-11-07T20:31:19.443Z,36.20
2017-11-07T20:33:47.944Z,34.67
2017-11-07T20:36:16.472Z,36.27
2017-11-07T20:38:44.966Z,37.50
2017-11-07T20:41:14.232Z,37.17
2017-11-07T20:43:42.757Z,37.70
2017-11-07T20:46:11.843Z,39.23
2017-11-07T20:48:41.201Z,39.40
2017-11-07T20:51:09.356Z,38.03
2017-11-07T20:53:37.949Z,37.70
2017-11-07T20:56:06.435Z,39.13
2017-11-07T20:58:34.941Z,46.13
2017-11-07T21:01:03.451Z,64.40
2017-11-07T21:03:32.704Z,39.80
2017-11-07T21:06:01.194Z,38.83
2017-11-07T21:08:29.731Z,38.37
2017-11-07T21:10:58.967Z,39.37
2017-11-07T21:13:27.490Z,40.43
2017-11-07T21:15:55.995Z,36.80
2017-11-07T21:18:25.244Z,38.83
2017-11-07T21:20:54.583Z,37.00
2017-11-07T21:23:23.152Z,40.77
2017-11-07T21:25:51.644Z,40.70
2017-11-07T21:28:20.127Z,41.37
2017-11-07T21:30:48.631Z,42.13
2017-11-07T21:33:18.700Z,40.20
2017-11-07T21:35:49.210Z,41.83
2017-11-07T21:38:17.807Z,42.40
2017-11-07T21:40:46.293Z,40.37
2017-11-07T21:43:14.991Z,42.07
2017-11-07T21:45:43.492Z,39.77
2017-11-07T21:48:11.984Z,38.50
2017-11-07T21:50:40.572Z,37.43
2017-11-07T21:53:09.047Z,38.67
2017-11-07T21:55:37.572Z,39.00
2017-11-07T21:58:06.049Z,38.20
2017-11-07T22:00:34.557Z,36.00
2017-11-07T22:03:03.056Z,39.10
2017-11-07T22:05:31.524Z,35.67
2017-11-07T22:08:00.022Z,37.37
2017-11-07T22:10:28.540Z,36.40
2017-11-07T22:12:57.031Z,36.60
2017-11-07T22:15:26.287Z,33.83
2017-11-07T22:17:55.579Z,34.73
2017-11-07T22:20:24.039Z,34.30
2017-11-07T22:22:57.439Z,36.50
2017-11-07T22:25:25.907Z,36.30
2017-11-07T22:27:55.159Z,36.27
2017-11-07T22:30:23.640Z,36.47
2017-11-07T22:32:52.155Z,35.50
2017-11-07T22:35:21.395Z,36.90
2017-11-07T22:37:50.872Z,35.43
2017-11-07T22:40:20.115Z,37.20
2017-11-07T22:42:48.596Z,36.73
2017-11-07T22:45:17.065Z,37.43
2017-11-07T22:47:45.552Z,40.37
2017-11-07T22:50:14.039Z,38.93
2017-11-07T22:52:42.817Z,38.00
2017-11-07T22:55:11.287Z,39.87
2017-11-07T22:57:40.783Z,40.03
2017-11-07T23:00:09.487Z,40.30
2017-11-07T23:02:37.956Z,42.00
2017-11-07T23:05:07.216Z,43.53
2017-11-07T23:07:35.696Z,42.30
2017-11-07T23:10:03.848Z,41.80
2017-11-07T23:12:32.131Z,41.37
2017-11-07T23:15:00.411Z,43.70
2017-11-07T23:17:28.902Z,44.03
2017-11-07T23:19:57.439Z,43.27
2017-11-07T23:22:26.705Z,44.03
2017-11-07T23:24:55.183Z,44.07
2017-11-07T23:27:23.675Z,43.90
2017-11-07T23:29:52.136Z,44.13
2017-11-07T23:32:20.621Z,44.33
2017-11-07T23:34:49.103Z,41.57
2017-11-07T23:37:17.592Z,40.83
2017-11-07T23:39:46.307Z,42.10
2017-11-07T23:42:15.537Z,41.90
2017-11-07T23:44:44.025Z,43.60
2017-11-07T23:47:12.490Z,43.47
2017-11-07T23:49:41.000Z,43.67
2017-11-07T23:52:09.472Z,44.80
2017-11-07T23:54:37.963Z,44.00
2017-11-07T23:57:06.539Z,42.97
2017-11-07T23:59:35.016Z,45.43
